TimeCST,TemperatureF,Dew PointF,Humidity,Sea Level PressureIn,VisibilityMPH,Wind Direction,Wind SpeedMPH,Gust SpeedMPH,PrecipitationIn,Events,Conditions,WindDirDegrees,DateUTC
12:56 AM,52.0,42.1,69,29.93,10.0,NNW,4.6,-,N/A,,Clear,330,2013-02-27 06:56:00
1:56 AM,51.1,43.0,74,29.93,10.0,Calm,Calm,-,N/A,,Clear,0,2013-02-27 07:56:00
2:56 AM,46.0,43.0,89,29.93,10.0,Calm,Calm,-,N/A,,Clear,0,2013-02-27 08:56:00
3:56 AM,46.9,44.1,90,29.94,10.0,Calm,Calm,-,N/A,,Clear,0,2013-02-27 09:56:00
4:56 AM,46.0,44.1,93,29.96,10.0,Calm,Calm,-,N/A,,Clear,0,2013-02-27 10:56:00
5:56 AM,45.0,43.0,93,29.96,10.0,Calm,Calm,-,N/A,,Mostly Cloudy,0,2013-02-27 11:56:00
6:56 AM,48.9,43.0,80,29.98,10.0,Calm,Calm,-,N/A,,Mostly Cloudy,0,2013-02-27 12:56:00
7:56 AM,51.1,43.0,74,30.00,10.0,Calm,Calm,-,N/A,,Mostly Cloudy,0,2013-02-27 13:56:00
8:56 AM,55.0,39.9,57,30.01,10.0,North,3.5,-,N/A,,Mostly Cloudy,360,2013-02-27 14:56:00
9:56 AM,55.9,35.1,45,30.03,10.0,WNW,3.5,-,N/A,,Overcast,290,2013-02-27 15:56:00
10:56 AM,59.0,37.0,44,30.04,10.0,NW,5.8,-,N/A,,Mostly Cloudy,320,2013-02-27 16:56:00
11:56 AM,59.0,39.9,49,30.02,10.0,South,11.5,-,N/A,,Mostly Cloudy,190,2013-02-27 17:56:00
12:56 PM,59.0,39.9,49,30.00,10.0,SSW,11.5,-,N/A,,Mostly Cloudy,210,2013-02-27 18:56:00
1:56 PM,61.0,39.9,46,29.99,10.0,SW,13.8,-,N/A,,Mostly Cloudy,220,2013-02-27 19:56:00
2:56 PM,61.0,39.0,44,29.97,10.0,SW,12.7,-,N/A,,Scattered Clouds,220,2013-02-27 20:56:00
3:56 PM,60.1,39.9,47,29.96,10.0,SW,13.8,-,N/A,,Scattered Clouds,230,2013-02-27 21:56:00
4:56 PM,59.0,42.1,53,29.97,10.0,SW,11.5,-,N/A,,Scattered Clouds,230,2013-02-27 22:56:00
5:56 PM,55.0,44.1,67,29.98,10.0,WSW,5.8,-,N/A,,Scattered Clouds,240,2013-02-27 23:56:00
6:56 PM,53.1,45.0,74,29.98,10.0,Calm,Calm,-,N/A,,Partly Cloudy,0,2013-02-28 00:56:00
7:56 PM,50.0,45.0,83,29.98,10.0,Calm,Calm,-,N/A,,Partly Cloudy,0,2013-02-28 01:56:00
8:56 PM,48.0,45.0,89,29.98,10.0,Calm,Calm,-,N/A,,Partly Cloudy,0,2013-02-28 02:56:00
9:56 PM,50.0,46.0,86,29.99,10.0,WSW,3.5,-,N/A,,Clear,250,2013-02-28 03:56:00
10:56 PM,53.1,46.9,80,29.98,10.0,West,3.5,-,N/A,,Clear,260,2013-02-28 04:56:00
11:56 PM,55.9,48.9,77,29.97,10.0,West,6.9,-,N/A,,Clear,260,2013-02-28 05:56:00